createdAt,value
2019-02-20T00:00:49.975Z,1012.99
2019-02-20T00:01:49.839Z,1012.96
2019-02-20T00:02:49.890Z,1012.96
2019-02-20T00:03:49.782Z,1012.99
2019-02-20T00:04:49.799Z,1013.02
2019-02-20T00:05:49.726Z,1013.03
2019-02-20T00:06:49.707Z,1013.02
2019-02-20T00:07:49.656Z,1013.01
2019-02-20T00:08:49.722Z,1013.05
2019-02-20T00:09:49.611Z,1013.06
2019-02-20T00:10:49.636Z,1013.09
2019-02-20T00:11:49.541Z,1013.10
2019-02-20T00:12:49.559Z,1013.09
2019-02-20T00:13:49.490Z,1013.11
2019-02-20T00:14:49.565Z,1013.10
2019-02-20T00:15:49.417Z,1013.10
2019-02-20T00:16:49.473Z,1013.14
2019-02-20T00:17:49.367Z,1013.12
2019-02-20T00:18:49.377Z,1013.10
2019-02-20T00:19:49.307Z,1013.12
2019-02-20T00:20:49.291Z,1013.14
2019-02-20T00:21:49.246Z,1013.13
2019-02-20T00:22:49.317Z,1013.16
2019-02-20T00:23:49.193Z,1013.15
2019-02-20T00:24:49.221Z,1013.20
2019-02-20T00:25:49.139Z,1013.21
2019-02-20T00:26:49.134Z,1013.21
2019-02-20T00:27:49.069Z,1013.24
2019-02-20T00:28:49.147Z,1013.25
2019-02-20T00:29:49.015Z,1013.21
2019-02-20T00:30:49.078Z,1013.25
2019-02-20T00:31:48.956Z,1013.21
2019-02-20T00:32:48.980Z,1013.26
2019-02-20T00:33:48.897Z,1013.22
2019-02-20T00:34:48.890Z,1013.23
2019-02-20T00:35:48.830Z,1013.20
2019-02-20T00:36:48.902Z,1013.23
2019-02-20T00:37:48.777Z,1013.25
2019-02-20T00:38:48.813Z,1013.19
2019-02-20T00:39:48.722Z,1013.17
2019-02-20T00:40:48.725Z,1013.21
2019-02-20T00:41:48.663Z,1013.15
2019-02-20T00:42:48.737Z,1013.14
2019-02-20T00:43:48.598Z,1013.12
2019-02-20T00:44:48.570Z,1013.12
2019-02-20T00:45:48.635Z,1013.14
2019-02-20T00:46:48.508Z,1013.13
2019-02-20T00:47:48.544Z,1013.14
2019-02-20T00:48:48.460Z,1013.13
2019-02-20T00:49:48.455Z,1013.14
2019-02-20T00:50:48.396Z,1013.15
2019-02-20T00:51:48.470Z,1013.16
2019-02-20T00:52:50.173Z,1013.10
2019-02-20T00:53:48.440Z,1013.13
2019-02-20T00:54:48.273Z,1013.15
2019-02-20T00:55:48.293Z,1013.13
2019-02-20T00:56:48.220Z,1013.11
2019-02-20T00:57:48.209Z,1013.12
2019-02-20T00:58:48.151Z,1013.13
2019-02-20T00:59:48.220Z,1013.12
2019-02-20T01:00:48.106Z,1013.15
2019-02-20T01:01:48.136Z,1013.16
2019-02-20T01:02:48.039Z,1013.20
2019-02-20T01:03:48.049Z,1013.21
2019-02-20T01:04:48.000Z,1013.21
2019-02-20T01:05:48.058Z,1013.20
2019-02-20T01:06:47.918Z,1013.18
2019-02-20T01:07:47.983Z,1013.23
2019-02-20T01:08:47.866Z,1013.21
2019-02-20T01:09:47.863Z,1013.23
2019-02-20T01:10:47.799Z,1013.14
2019-02-20T01:11:47.869Z,1013.22
2019-02-20T01:12:47.742Z,1013.25
2019-02-20T01:13:47.768Z,1013.27
2019-02-20T01:14:47.683Z,1013.21
2019-02-20T01:15:47.677Z,1013.23
2019-02-20T01:16:47.630Z,1013.18
2019-02-20T01:17:47.706Z,1013.22
2019-02-20T01:18:47.565Z,1013.22
2019-02-20T01:19:47.613Z,1013.25
2019-02-20T01:20:47.507Z,1013.26
2019-02-20T01:21:47.522Z,1013.33
2019-02-20T01:22:47.458Z,1013.30
2019-02-20T01:23:47.545Z,1013.31
2019-02-20T01:24:47.388Z,1013.32
2019-02-20T01:25:47.366Z,1013.36
2019-02-20T01:26:47.428Z,1013.38
2019-02-20T01:27:47.303Z,1013.31
2019-02-20T01:28:47.270Z,1013.33
2019-02-20T01:29:47.240Z,1013.30
2019-02-20T01:30:47.207Z,1013.30
2019-02-20T01:31:47.188Z,1013.27
2019-02-20T01:32:47.154Z,1013.27
2019-02-20T01:33:47.124Z,1013.24
2019-02-20T01:34:47.130Z,1013.27
2019-02-20T01:35:47.057Z,1013.25
2019-02-20T01:36:47.036Z,1013.23
2019-02-20T01:37:47.006Z,1013.22
2019-02-20T01:38:46.979Z,1013.22
2019-02-20T01:39:46.946Z,1013.18
2019-02-20T01:40:46.918Z,1013.23
2019-02-20T01:41:46.933Z,1013.22
2019-02-20T01:42:46.849Z,1013.19
2019-02-20T01:43:46.837Z,1013.19
2019-02-20T01:44:46.797Z,1013.20
2019-02-20T01:45:46.760Z,1013.19
2019-02-20T01:46:46.738Z,1013.21
2019-02-20T01:47:46.713Z,1013.19
2019-02-20T01:48:46.719Z,1013.16
2019-02-20T01:49:46.660Z,1013.14
2019-02-20T01:50:46.649Z,1013.12
2019-02-20T01:51:46.589Z,1013.13
2019-02-20T01:52:46.563Z,1013.12
2019-02-20T01:53:46.531Z,1013.13
2019-02-20T01:54:46.501Z,1013.10
2019-02-20T01:55:46.487Z,1013.13
2019-02-20T01:56:46.442Z,1013.16
2019-02-20T01:57:46.472Z,1013.14
2019-02-20T01:58:46.380Z,1013.14
2019-02-20T01:59:46.383Z,1013.16
2019-02-20T02:00:46.328Z,1013.14
2019-02-20T02:01:46.403Z,1013.10
2019-02-20T02:02:46.259Z,1013.12
2019-02-20T02:03:46.309Z,1013.11
2019-02-20T02:04:46.207Z,1013.12
2019-02-20T02:05:46.215Z,1013.11
2019-02-20T02:06:46.142Z,1013.11
2019-02-20T02:07:46.127Z,1013.15
2019-02-20T02:08:46.083Z,1013.14
2019-02-20T02:09:46.140Z,1013.21
2019-02-20T02:10:46.030Z,1013.19
2019-02-20T02:11:46.003Z,1013.20
2019-02-20T02:12:45.978Z,1013.20
2019-02-20T02:13:45.938Z,1013.21
2019-02-20T02:14:45.919Z,1013.19
2019-02-20T02:15:45.867Z,1013.23
2019-02-20T02:16:45.855Z,1013.22
2019-02-20T02:17:45.858Z,1013.25
2019-02-20T02:18:45.792Z,1013.24
2019-02-20T02:19:45.764Z,1013.21
2019-02-20T02:20:45.728Z,1013.20
2019-02-20T02:21:45.706Z,1013.19
2019-02-20T02:22:45.665Z,1013.19
2019-02-20T02:23:47.592Z,1013.18
2019-02-20T02:24:45.609Z,1013.21
2019-02-20T02:25:45.574Z,1013.22
2019-02-20T02:26:45.547Z,1013.20
2019-02-20T02:27:45.539Z,1013.16
2019-02-20T02:28:45.499Z,1013.21
2019-02-20T02:29:45.458Z,1013.19
2019-02-20T02:30:45.430Z,1013.20
2019-02-20T02:31:45.413Z,1013.14
2019-02-20T02:32:45.370Z,1013.14
2019-02-20T02:33:45.346Z,1013.10
2019-02-20T02:34:45.309Z,1013.11
2019-02-20T02:35:45.281Z,1013.10
2019-02-20T02:36:45.267Z,1013.12
2019-02-20T02:37:45.228Z,1013.06
2019-02-20T02:38:45.258Z,1013.08
2019-02-20T02:39:45.163Z,1013.05
2019-02-20T02:40:45.128Z,1013.04
2019-02-20T02:41:45.108Z,1013.00
2019-02-20T02:42:45.110Z,1012.97
2019-02-20T02:43:45.097Z,1013.00
2019-02-20T02:44:45.033Z,1012.98
2019-02-20T02:45:44.984Z,1012.98
2019-02-20T02:46:44.953Z,1012.96
2019-02-20T02:47:44.930Z,1013.00
2019-02-20T02:48:45.041Z,1013.01
2019-02-20T02:49:44.867Z,1012.99
2019-02-20T02:50:44.858Z,1012.96
2019-02-20T02:51:44.842Z,1012.99
2019-02-20T02:52:44.840Z,1013.00
2019-02-20T02:53:44.751Z,1012.98
2019-02-20T02:54:44.718Z,1012.95
2019-02-20T02:55:44.688Z,1012.99
2019-02-20T02:56:44.657Z,1012.98
2019-02-20T02:57:44.709Z,1012.97
2019-02-20T02:58:44.597Z,1012.98
2019-02-20T02:59:44.573Z,1012.97
2019-02-20T03:00:44.539Z,1013.00
2019-02-20T03:01:44.517Z,1012.99
2019-02-20T03:02:44.486Z,1013.01
2019-02-20T03:03:44.452Z,1012.96
2019-02-20T03:04:44.416Z,1012.98
2019-02-20T03:05:44.399Z,1012.98
2019-02-20T03:06:44.355Z,1013.00
2019-02-20T03:07:44.329Z,1013.03
2019-02-20T03:08:44.309Z,1013.03
2019-02-20T03:09:44.278Z,1013.04
2019-02-20T03:10:44.238Z,1013.04
2019-02-20T03:11:44.211Z,1013.09
2019-02-20T03:12:44.181Z,1013.07
2019-02-20T03:13:44.146Z,1013.03
2019-02-20T03:14:44.124Z,1013.10
2019-02-20T03:15:44.093Z,1013.10
2019-02-20T03:16:44.074Z,1013.09
2019-02-20T03:17:44.032Z,1013.09
2019-02-20T03:18:43.997Z,1013.15
2019-02-20T03:19:43.976Z,1013.14
2019-02-20T03:20:43.950Z,1013.18
2019-02-20T03:21:43.915Z,1013.16
2019-02-20T03:22:43.932Z,1013.19
2019-02-20T03:23:43.855Z,1013.18
2019-02-20T03:24:43.832Z,1013.16
2019-02-20T03:25:43.797Z,1013.11
2019-02-20T03:26:43.767Z,1013.16
2019-02-20T03:27:43.757Z,1013.09
2019-02-20T03:28:43.700Z,1013.07
2019-02-20T03:29:43.675Z,1013.10
2019-02-20T03:30:43.663Z,1013.08
2019-02-20T03:31:43.647Z,1013.05
2019-02-20T03:32:43.586Z,1013.07
2019-02-20T03:33:43.554Z,1013.05
2019-02-20T03:34:43.539Z,1013.05
2019-02-20T03:35:43.507Z,1013.04
2019-02-20T03:36:43.464Z,1013.11
2019-02-20T03:37:43.438Z,1013.08
2019-02-20T03:38:43.419Z,1013.06
2019-02-20T03:39:43.376Z,1013.03
2019-02-20T03:40:43.411Z,1013.06
2019-02-20T03:41:43.322Z,1013.03
2019-02-20T03:42:43.285Z,1013.08
2019-02-20T03:43:43.262Z,1013.09
2019-02-20T03:44:43.231Z,1013.07
2019-02-20T03:45:43.244Z,1013.10
2019-02-20T03:46:43.168Z,1013.12
2019-02-20T03:47:44.178Z,1013.08
2019-02-20T03:48:43.118Z,1013.11
2019-02-20T03:49:43.164Z,1013.10
2019-02-20T03:50:43.055Z,1013.15
2019-02-20T03:51:43.027Z,1013.12
2019-02-20T03:52:44.009Z,1013.13
2019-02-20T03:53:51.134Z,1013.17
2019-02-20T03:54:42.934Z,1013.18
2019-02-20T03:55:42.910Z,1013.21
2019-02-20T03:56:42.874Z,1013.20
2019-02-20T03:57:42.837Z,1013.17
2019-02-20T03:58:42.812Z,1013.22
2019-02-20T03:59:42.787Z,1013.26
2019-02-20T04:00:43.797Z,1013.22
2019-02-20T04:01:42.719Z,1013.28
2019-02-20T04:02:42.705Z,1013.25
2019-02-20T04:03:42.666Z,1013.24
2019-02-20T04:04:42.633Z,1013.20
2019-02-20T04:05:42.730Z,1013.24
2019-02-20T04:06:42.566Z,1013.23
2019-02-20T04:07:42.560Z,1013.24
2019-02-20T04:08:42.513Z,1013.24
2019-02-20T04:09:42.485Z,1013.23
2019-02-20T04:10:42.469Z,1013.24
2019-02-20T04:11:42.419Z,1013.21
2019-02-20T04:12:42.392Z,1013.19
2019-02-20T04:13:42.367Z,1013.24
2019-02-20T04:14:42.392Z,1013.24
2019-02-20T04:15:42.453Z,1013.26
2019-02-20T04:16:42.471Z,1013.25
2019-02-20T04:17:42.511Z,1013.23
2019-02-20T04:18:42.525Z,1013.22
2019-02-20T04:19:42.466Z,1013.25
2019-02-20T04:20:42.174Z,1013.19
2019-02-20T04:21:42.134Z,1013.19
2019-02-20T04:22:42.101Z,1013.21
2019-02-20T04:23:42.071Z,1013.22
2019-02-20T04:24:42.054Z,1013.17
2019-02-20T04:25:42.011Z,1013.20
2019-02-20T04:26:41.989Z,1013.22
2019-02-20T04:27:41.948Z,1013.21
2019-02-20T04:28:41.949Z,1013.23
2019-02-20T04:29:41.899Z,1013.22
2019-02-20T04:30:41.883Z,1013.23
2019-02-20T04:31:41.855Z,1013.21
2019-02-20T04:32:41.820Z,1013.21
2019-02-20T04:33:41.866Z,1013.21
2019-02-20T04:34:41.738Z,1013.19
2019-02-20T04:35:42.027Z,1013.17
2019-02-20T04:36:41.684Z,1013.17
2019-02-20T04:37:41.644Z,1013.09
2019-02-20T04:38:41.626Z,1013.19
2019-02-20T04:39:41.592Z,1013.19
2019-02-20T04:40:41.661Z,1013.16
2019-02-20T04:41:41.543Z,1013.14
2019-02-20T04:42:41.503Z,1013.19
2019-02-20T04:43:41.469Z,1013.18
2019-02-20T04:44:41.458Z,1013.22
2019-02-20T04:45:41.430Z,1013.23
2019-02-20T04:46:41.381Z,1013.20
2019-02-20T04:47:41.347Z,1013.22
2019-02-20T04:48:41.320Z,1013.26
2019-02-20T04:49:41.288Z,1013.28
2019-02-20T04:50:41.255Z,1013.22
2019-02-20T04:51:41.227Z,1013.22
2019-02-20T04:52:41.201Z,1013.22
2019-02-20T04:53:41.168Z,1013.23
2019-02-20T04:54:41.180Z,1013.20
2019-02-20T04:55:41.108Z,1013.16
2019-02-20T04:56:41.195Z,1013.17
2019-02-20T04:57:41.040Z,1013.16
2019-02-20T04:58:41.108Z,1013.17
2019-02-20T04:59:40.990Z,1013.19
2019-02-20T05:00:41.019Z,1013.23
2019-02-20T05:01:40.931Z,1013.21
2019-02-20T05:02:40.934Z,1013.24
2019-02-20T05:03:40.869Z,1013.19
2019-02-20T05:04:40.945Z,1013.22
2019-02-20T05:05:40.804Z,1013.23
2019-02-20T05:06:40.793Z,1013.22
2019-02-20T05:07:40.750Z,1013.20
2019-02-20T05:08:40.755Z,1013.18
2019-02-20T05:09:40.690Z,1013.20
2019-02-20T05:10:40.661Z,1013.21
2019-02-20T05:11:40.638Z,1013.17
2019-02-20T05:12:40.600Z,1013.24
2019-02-20T05:13:40.602Z,1013.25
2019-02-20T05:14:40.540Z,1013.21
2019-02-20T05:15:40.518Z,1013.22
2019-02-20T05:16:40.483Z,1013.25
2019-02-20T05:17:40.534Z,1013.25
2019-02-20T05:18:40.425Z,1013.24
2019-02-20T05:19:40.393Z,1013.21
2019-02-20T05:20:40.366Z,1013.21
2019-02-20T05:21:40.338Z,1013.24
2019-02-20T05:22:40.356Z,1013.27
2019-02-20T05:23:40.274Z,1013.24
2019-02-20T05:24:40.305Z,1013.27
2019-02-20T05:25:40.211Z,1013.28
2019-02-20T05:26:40.182Z,1013.29
2019-02-20T05:27:40.149Z,1013.27
2019-02-20T05:28:40.215Z,1013.30
2019-02-20T05:29:40.089Z,1013.27
2019-02-20T05:30:40.070Z,1013.31
2019-02-20T05:31:40.039Z,1013.25
2019-02-20T05:32:40.001Z,1013.27
2019-02-20T05:33:39.968Z,1013.24
2019-02-20T05:34:40.002Z,1013.23
2019-02-20T05:35:39.908Z,1013.29
2019-02-20T05:36:39.884Z,1013.27
2019-02-20T05:37:39.851Z,1013.26
2019-02-20T05:38:39.823Z,1013.25
2019-02-20T05:39:39.829Z,1013.26
2019-02-20T05:40:39.859Z,1013.23
2019-02-20T05:41:39.915Z,1013.24
2019-02-20T05:42:39.715Z,1013.24
2019-02-20T05:43:39.679Z,1013.24
2019-02-20T05:44:39.635Z,1013.24
2019-02-20T05:45:39.612Z,1013.25
2019-02-20T05:46:39.582Z,1013.24
2019-02-20T05:47:39.554Z,1013.25
2019-02-20T05:48:39.522Z,1013.23
2019-02-20T05:49:39.495Z,1013.23
2019-02-20T05:50:39.460Z,1013.26
2019-02-20T05:51:39.440Z,1013.23
2019-02-20T05:52:39.414Z,1013.24
2019-02-20T05:53:39.374Z,1013.21
2019-02-20T05:54:39.351Z,1013.15
2019-02-20T05:55:39.320Z,1013.21
2019-02-20T05:56:39.294Z,1013.18
2019-02-20T05:57:39.253Z,1013.20
2019-02-20T05:58:39.239Z,1013.16
2019-02-20T05:59:39.194Z,1013.20
2019-02-20T06:00:39.171Z,1013.23
2019-02-20T06:01:39.178Z,1013.24
2019-02-20T06:02:39.120Z,1013.19
2019-02-20T06:03:39.073Z,1013.24
2019-02-20T06:04:39.059Z,1013.23
2019-02-20T06:05:39.014Z,1013.25
2019-02-20T06:06:38.987Z,1013.25
2019-02-20T06:07:38.973Z,1013.29
2019-02-20T06:08:38.927Z,1013.28
2019-02-20T06:09:38.906Z,1013.29
2019-02-20T06:10:38.864Z,1013.30
2019-02-20T06:11:38.832Z,1013.29
2019-02-20T06:12:38.802Z,1013.30
2019-02-20T06:13:38.772Z,1013.30
2019-02-20T06:14:38.760Z,1013.32
2019-02-20T06:15:38.743Z,1013.32
2019-02-20T06:16:38.682Z,1013.33
2019-02-20T06:17:38.654Z,1013.27
2019-02-20T06:18:38.629Z,1013.31
2019-02-20T06:19:38.593Z,1013.33
2019-02-20T06:20:38.584Z,1013.35
2019-02-20T06:21:38.533Z,1013.35
2019-02-20T06:22:38.509Z,1013.41
2019-02-20T06:23:38.483Z,1013.38
2019-02-20T06:24:44.046Z,1013.42
2019-02-20T06:25:38.475Z,1013.40
2019-02-20T06:26:38.402Z,1013.42
2019-02-20T06:27:38.386Z,1013.44
2019-02-20T06:28:38.328Z,1013.41
2019-02-20T06:29:38.392Z,1013.40
2019-02-20T06:30:38.295Z,1013.44
2019-02-20T06:31:38.302Z,1013.46
2019-02-20T06:32:38.204Z,1013.44
2019-02-20T06:33:38.218Z,1013.48
2019-02-20T06:34:38.146Z,1013.43
2019-02-20T06:35:38.129Z,1013.46
2019-02-20T06:36:38.104Z,1013.48
2019-02-20T06:37:38.142Z,1013.48
2019-02-20T06:38:38.027Z,1013.55
2019-02-20T06:39:38.042Z,1013.54
2019-02-20T06:40:37.967Z,1013.52
2019-02-20T06:41:39.370Z,1013.55
2019-02-20T06:42:37.903Z,1013.56
2019-02-20T06:43:37.891Z,1013.61
2019-02-20T06:44:37.847Z,1013.61
2019-02-20T06:45:37.819Z,1013.63
2019-02-20T06:46:37.922Z,1013.61
2019-02-20T06:47:37.751Z,1013.65
2019-02-20T06:48:37.838Z,1013.67
2019-02-20T06:49:37.698Z,1013.70
2019-02-20T06:50:37.662Z,1013.70
2019-02-20T06:51:37.632Z,1013.66
2019-02-20T06:52:37.672Z,1013.73
2019-02-20T06:53:37.574Z,1013.71
2019-02-20T06:54:37.535Z,1013.70
2019-02-20T06:55:37.513Z,1013.72
2019-02-20T06:56:37.477Z,1013.68
2019-02-20T06:57:37.539Z,1013.70
2019-02-20T06:58:37.436Z,1013.72
2019-02-20T06:59:37.454Z,1013.70
2019-02-20T07:00:37.366Z,1013.70
2019-02-20T07:01:37.372Z,1013.73
2019-02-20T07:02:37.300Z,1013.73
2019-02-20T07:03:37.266Z,1013.76
2019-02-20T07:04:37.273Z,1013.74
2019-02-20T07:05:37.213Z,1013.79
2019-02-20T07:06:37.183Z,1013.81
2019-02-20T07:07:37.197Z,1013.84
2019-02-20T07:08:37.114Z,1013.83
2019-02-20T07:09:37.123Z,1013.84
2019-02-20T07:10:37.059Z,1013.80
2019-02-20T07:11:37.028Z,1013.86
2019-02-20T07:12:37.058Z,1013.86
2019-02-20T07:13:36.969Z,1013.83
2019-02-20T07:14:36.937Z,1013.85
2019-02-20T07:15:36.913Z,1013.88
2019-02-20T07:16:36.886Z,1013.87
2019-02-20T07:17:36.884Z,1013.89
2019-02-20T07:18:36.817Z,1013.88
2019-02-20T07:19:36.779Z,1013.91
2019-02-20T07:20:36.767Z,1013.96
2019-02-20T07:21:36.728Z,1014.02
2019-02-20T07:22:36.706Z,1014.01
2019-02-20T07:23:36.680Z,1014.02
2019-02-20T07:24:36.642Z,1014.05
2019-02-20T07:25:36.609Z,1014.12
2019-02-20T07:26:36.582Z,1014.05
2019-02-20T07:27:36.550Z,1014.07
2019-02-20T07:28:36.514Z,1014.09
2019-02-20T07:29:36.491Z,1014.07
2019-02-20T07:30:36.455Z,1014.10
2019-02-20T07:31:36.425Z,1014.13
2019-02-20T07:32:36.401Z,1014.12
2019-02-20T07:33:36.367Z,1014.11
2019-02-20T07:34:36.341Z,1014.16
2019-02-20T07:35:36.317Z,1014.15
2019-02-20T07:36:36.280Z,1014.17
2019-02-20T07:37:36.258Z,1014.15
2019-02-20T07:38:36.221Z,1014.15
2019-02-20T07:39:36.191Z,1014.17
2019-02-20T07:40:36.155Z,1014.14
2019-02-20T07:41:36.185Z,1014.20
2019-02-20T07:42:36.093Z,1014.18
2019-02-20T07:43:36.068Z,1014.17
2019-02-20T07:44:36.120Z,1014.20
2019-02-20T07:45:36.006Z,1014.21
2019-02-20T07:46:35.976Z,1014.19
2019-02-20T07:47:35.944Z,1014.23
2019-02-20T07:48:35.915Z,1014.23
2019-02-20T07:49:35.934Z,1014.24
2019-02-20T07:50:35.866Z,1014.25
2019-02-20T07:51:35.988Z,1014.26
2019-02-20T07:52:35.798Z,1014.28
2019-02-20T07:53:35.848Z,1014.29
2019-02-20T07:54:35.738Z,1014.25
2019-02-20T07:55:35.771Z,1014.33
2019-02-20T07:56:35.690Z,1014.34
2019-02-20T07:57:35.778Z,1014.33
2019-02-20T07:58:35.636Z,1014.35
2019-02-20T07:59:35.684Z,1014.39
2019-02-20T08:00:35.553Z,1014.41
2019-02-20T08:01:35.592Z,1014.41
2019-02-20T08:02:35.507Z,1014.39
2019-02-20T08:03:35.502Z,1014.40
2019-02-20T08:04:35.430Z,1014.41
2019-02-20T08:05:35.516Z,1014.45
2019-02-20T08:06:35.370Z,1014.43
2019-02-20T08:07:35.429Z,1014.46
2019-02-20T08:08:35.314Z,1014.43
2019-02-20T08:09:35.338Z,1014.45
2019-02-20T08:10:35.390Z,1014.45
2019-02-20T08:11:35.246Z,1014.49
2019-02-20T08:12:35.192Z,1014.54
2019-02-20T08:13:39.304Z,1014.53
2019-02-20T08:14:35.126Z,1014.53
2019-02-20T08:15:35.106Z,1014.53
2019-02-20T08:16:35.070Z,1014.56
2019-02-20T08:17:35.043Z,1014.60
2019-02-20T08:18:35.135Z,1014.57
2019-02-20T08:19:34.992Z,1014.61
2019-02-20T08:20:35.051Z,1014.62
2019-02-20T08:21:34.915Z,1014.63
2019-02-20T08:22:35.063Z,1014.65
2019-02-20T08:23:34.860Z,1014.64
2019-02-20T08:24:34.830Z,1014.62
2019-02-20T08:25:34.821Z,1014.72
2019-02-20T08:26:34.773Z,1014.72
2019-02-20T08:27:34.738Z,1014.74
2019-02-20T08:28:34.716Z,1014.78
2019-02-20T08:29:34.687Z,1014.76
2019-02-20T08:30:34.653Z,1014.75
2019-02-20T08:31:34.618Z,1014.78
2019-02-20T08:32:34.622Z,1014.79
2019-02-20T08:33:34.558Z,1014.73
2019-02-20T08:34:34.530Z,1014.74
2019-02-20T08:35:34.490Z,1014.72
2019-02-20T08:36:34.488Z,1014.74
2019-02-20T08:37:34.547Z,1014.72
2019-02-20T08:38:34.401Z,1014.74
2019-02-20T08:39:34.488Z,1014.71
2019-02-20T08:40:34.357Z,1014.74
2019-02-20T08:41:34.337Z,1014.75
2019-02-20T08:42:34.327Z,1014.74
2019-02-20T08:43:34.286Z,1014.76
2019-02-20T08:44:34.242Z,1014.75
2019-02-20T08:45:42.300Z,1014.77
2019-02-20T08:46:34.201Z,1014.78
2019-02-20T08:47:35.127Z,1014.78
2019-02-20T08:48:34.100Z,1014.80
2019-02-20T08:49:34.165Z,1014.82
2019-02-20T08:50:34.048Z,1014.77
2019-02-20T08:51:34.080Z,1014.86
2019-02-20T08:52:33.982Z,1014.87
2019-02-20T08:53:33.959Z,1014.89
2019-02-20T08:54:33.922Z,1014.88
2019-02-20T08:55:33.896Z,1014.88
2019-02-20T08:56:33.865Z,1014.89
2019-02-20T08:57:33.841Z,1014.89
2019-02-20T08:58:33.809Z,1014.86
2019-02-20T08:59:33.771Z,1014.85
2019-02-20T09:00:33.750Z,1014.90
2019-02-20T09:01:33.727Z,1014.90
2019-02-20T09:02:33.679Z,1014.88
2019-02-20T09:03:33.650Z,1014.83
2019-02-20T09:04:33.646Z,1014.90
2019-02-20T09:05:34.222Z,1014.90
2019-02-20T09:06:33.594Z,1014.93
2019-02-20T09:07:33.531Z,1014.92
2019-02-20T09:08:33.498Z,1014.96
2019-02-20T09:09:33.473Z,1014.95
2019-02-20T09:10:33.442Z,1014.93
2019-02-20T09:11:33.417Z,1015.02
2019-02-20T09:12:33.380Z,1014.94
2019-02-20T09:13:33.393Z,1014.93
2019-02-20T09:14:33.330Z,1014.96
2019-02-20T09:15:33.315Z,1015.02
2019-02-20T09:16:33.280Z,1014.95
2019-02-20T09:17:33.661Z,1014.96
2019-02-20T09:18:33.224Z,1014.98
2019-02-20T09:19:33.197Z,1014.98
2019-02-20T09:20:33.158Z,1015.00
2019-02-20T09:21:33.115Z,1015.01
2019-02-20T09:22:33.381Z,1014.97
2019-02-20T09:23:33.053Z,1014.96
2019-02-20T09:24:34.127Z,1015.02
2019-02-20T09:25:41.301Z,1014.98
2019-02-20T09:26:32.954Z,1014.98
2019-02-20T09:27:33.006Z,1015.06
2019-02-20T09:28:32.906Z,1015.09
2019-02-20T09:29:32.993Z,1015.04
2019-02-20T09:30:32.839Z,1015.05
2019-02-20T09:31:32.901Z,1015.05
2019-02-20T09:32:32.805Z,1015.05
2019-02-20T09:33:32.804Z,1015.04
2019-02-20T09:34:32.717Z,1015.06
2019-02-20T09:35:32.714Z,1015.01
2019-02-20T09:36:32.658Z,1015.08
2019-02-20T09:37:32.729Z,1015.06
2019-02-20T09:38:32.607Z,1015.08
2019-02-20T09:39:32.638Z,1015.04
2019-02-20T09:40:32.539Z,1015.05
2019-02-20T09:41:32.559Z,1015.08
2019-02-20T09:42:32.494Z,1015.05
2019-02-20T09:43:32.458Z,1015.07
2019-02-20T09:44:32.422Z,1015.02
2019-02-20T09:45:41.384Z,1015.04
2019-02-20T09:46:32.397Z,1015.04
2019-02-20T09:47:32.383Z,1015.06
2019-02-20T09:48:32.297Z,1015.05
2019-02-20T09:49:32.292Z,1015.05
2019-02-20T09:50:32.233Z,1015.08
2019-02-20T09:51:32.305Z,1015.08
2019-02-20T09:52:32.182Z,1015.11
2019-02-20T09:53:32.216Z,1015.08
2019-02-20T09:54:32.121Z,1015.09
2019-02-20T09:55:32.126Z,1015.10
2019-02-20T09:56:32.070Z,1015.14
2019-02-20T09:57:32.038Z,1015.12
2019-02-20T09:58:32.012Z,1015.11
2019-02-20T09:59:32.048Z,1015.10
2019-02-20T10:00:31.948Z,1015.12
2019-02-20T10:01:32.233Z,1015.16
2019-02-20T10:02:31.883Z,1015.17
2019-02-20T10:03:31.870Z,1015.17
2019-02-20T10:04:31.834Z,1015.21
2019-02-20T10:05:31.928Z,1015.22
2019-02-20T10:06:31.800Z,1015.23
2019-02-20T10:07:31.794Z,1015.24
2019-02-20T10:08:31.699Z,1015.23
2019-02-20T10:09:31.704Z,1015.23
2019-02-20T10:10:31.645Z,1015.25
2019-02-20T10:11:31.724Z,1015.27
2019-02-20T10:12:31.595Z,1015.21
2019-02-20T10:13:31.653Z,1015.23
2019-02-20T10:14:31.519Z,1015.23
2019-02-20T10:15:31.541Z,1015.27
2019-02-20T10:16:31.459Z,1015.25
2019-02-20T10:17:31.451Z,1015.23
2019-02-20T10:18:31.415Z,1015.24
2019-02-20T10:19:31.483Z,1015.28
2019-02-20T10:20:31.411Z,1015.24
2019-02-20T10:21:31.371Z,1015.33
2019-02-20T10:22:31.279Z,1015.34
2019-02-20T10:23:31.285Z,1015.34
2019-02-20T10:24:31.220Z,1015.34
2019-02-20T10:25:31.315Z,1015.33
2019-02-20T10:26:31.163Z,1015.31
2019-02-20T10:27:31.213Z,1015.32
2019-02-20T10:28:31.096Z,1015.32
2019-02-20T10:29:31.131Z,1015.34
2019-02-20T10:30:31.040Z,1015.43
2019-02-20T10:31:31.027Z,1015.39
2019-02-20T10:32:30.992Z,1015.40
2019-02-20T10:33:31.039Z,1015.40
2019-02-20T10:34:30.960Z,1015.38
2019-02-20T10:35:30.957Z,1015.37
2019-02-20T10:36:30.860Z,1015.37
2019-02-20T10:37:30.864Z,1015.37
2019-02-20T10:38:30.798Z,1015.41
2019-02-20T10:39:30.886Z,1015.43
2019-02-20T10:40:30.746Z,1015.43
2019-02-20T10:41:30.801Z,1015.47
2019-02-20T10:42:30.684Z,1015.48
2019-02-20T10:43:30.699Z,1015.53
2019-02-20T10:44:30.622Z,1015.46
2019-02-20T10:45:30.612Z,1015.45
2019-02-20T10:46:30.561Z,1015.50
2019-02-20T10:47:30.621Z,1015.46
2019-02-20T10:48:30.504Z,1015.49
2019-02-20T10:49:30.529Z,1015.49
2019-02-20T10:50:30.438Z,1015.44
2019-02-20T10:51:30.444Z,1015.50
2019-02-20T10:52:30.393Z,1015.51
2019-02-20T10:53:30.455Z,1015.49
2019-02-20T10:54:30.322Z,1015.49
2019-02-20T10:55:30.363Z,1015.48
2019-02-20T10:56:30.263Z,1015.48
2019-02-20T10:57:30.277Z,1015.48
2019-02-20T10:58:30.208Z,1015.45
2019-02-20T10:59:30.175Z,1015.49
2019-02-20T11:00:30.143Z,1015.50
2019-02-20T11:01:30.205Z,1015.48
2019-02-20T11:02:30.111Z,1015.46
2019-02-20T11:03:30.135Z,1015.48
2019-02-20T11:04:30.889Z,1015.44
2019-02-20T11:05:31.045Z,1015.46
2019-02-20T11:06:29.957Z,1015.47
2019-02-20T11:08:30.465Z,1015.46
2019-02-20T11:09:31.917Z,1015.50
2019-02-20T11:10:29.838Z,1015.50
2019-02-20T11:11:29.855Z,1015.49
2019-02-20T11:12:29.783Z,1015.52
2019-02-20T11:13:31.815Z,1015.48
2019-02-20T11:14:29.725Z,1015.47
2019-02-20T11:15:30.805Z,1015.47
2019-02-20T11:16:29.670Z,1015.50
2019-02-20T11:17:29.725Z,1015.51
2019-02-20T11:18:29.600Z,1015.52
2019-02-20T11:19:29.596Z,1015.52
2019-02-20T11:20:29.614Z,1015.52
2019-02-20T11:21:29.611Z,1015.52
2019-02-20T11:22:29.490Z,1015.45
2019-02-20T11:23:29.530Z,1015.48
2019-02-20T11:24:29.430Z,1015.47
2019-02-20T11:25:31.189Z,1015.49
2019-02-20T11:26:29.363Z,1015.53
2019-02-20T11:27:29.444Z,1015.52
2019-02-20T11:28:29.304Z,1015.51
2019-02-20T11:29:30.376Z,1015.54
2019-02-20T11:30:29.245Z,1015.49
2019-02-20T11:31:29.265Z,1015.49
2019-02-20T11:32:29.189Z,1015.54
2019-02-20T11:33:29.173Z,1015.48
2019-02-20T11:34:29.257Z,1015.45
2019-02-20T11:35:30.128Z,1015.48
2019-02-20T11:36:29.071Z,1015.46
2019-02-20T11:37:29.099Z,1015.46
2019-02-20T11:38:30.852Z,1015.50
2019-02-20T11:39:37.534Z,1015.43
2019-02-20T11:40:28.946Z,1015.45
2019-02-20T11:41:28.916Z,1015.44
2019-02-20T11:42:28.925Z,1015.47
2019-02-20T11:43:28.863Z,1015.48
2019-02-20T11:44:29.039Z,1015.44
2019-02-20T11:45:28.797Z,1015.41
2019-02-20T11:46:28.852Z,1015.44
2019-02-20T11:47:28.735Z,1015.42
2019-02-20T11:48:28.708Z,1015.44
2019-02-20T11:49:28.694Z,1015.45
2019-02-20T11:50:28.651Z,1015.45
2019-02-20T11:51:28.668Z,1015.41
2019-02-20T11:52:28.683Z,1015.41
2019-02-20T11:53:36.848Z,1015.41
2019-02-20T11:54:28.526Z,1015.45
2019-02-20T11:55:28.499Z,1015.41
2019-02-20T11:56:28.503Z,1015.41
2019-02-20T11:57:28.439Z,1015.42
2019-02-20T11:58:28.517Z,1015.43
2019-02-20T11:59:28.383Z,1015.37
2019-02-20T12:00:28.429Z,1015.37
2019-02-20T12:01:28.322Z,1015.44
2019-02-20T12:02:28.296Z,1015.38
2019-02-20T12:03:28.274Z,1015.39
2019-02-20T12:04:28.234Z,1015.41
2019-02-20T12:05:28.255Z,1015.42
2019-02-20T12:06:28.169Z,1015.38